Time;durP1;ratioP1;P1;durP2;ratioP2;P2;SDS_P1;SDS_P2;PMS_P1;PMS_P2;Temp;Humidity;BMP_temperature;BMP_pressure;BME280_temperature;BME280_humidity;BME280_pressure;Samples;Min_cycle;Max_cycle;Signal;HPM_P1;HPM_P2
2021/10/10 00:00:57;;;;;;;;;;;25.10;92.00;;;;;;5074633;28;19958;-70
2021/10/10 00:03:24;;;;;;;;;;;25.20;91.90;;;;;;5074720;28;19999;-69
2021/10/10 00:05:50;;;;;;;;;;;25.30;91.60;;;;;;5074536;28;19944;-69
2021/10/10 00:08:17;;;;;;;;;;;25.40;91.30;;;;;;5074617;28;20001;-72
2021/10/10 00:10:44;;;;;;;;;;;25.30;91.70;;;;;;5073860;28;19908;-69
2021/10/10 00:13:10;;;;;;;;;;;25.30;92.00;;;;;;5074525;28;19934;-69
2021/10/10 00:15:37;;;;;;;;;;;25.10;91.90;;;;;;5074770;28;19916;-71
2021/10/10 00:18:04;;;;;;;;;;;25.10;92.00;;;;;;5075325;28;19951;-71
2021/10/10 00:20:31;;;;;;;;;;;25.20;91.80;;;;;;5074951;28;19908;-69
2021/10/10 00:22:58;;;;;;;;;;;25.10;92.20;;;;;;5074435;28;19920;-71
2021/10/10 00:25:25;;;;;;;;;;;25.10;91.90;;;;;;5075025;28;19916;-71
2021/10/10 00:27:52;;;;;;;;;;;25.00;91.60;;;;;;5075607;28;19923;-72
2021/10/10 00:30:22;;;;;;;;;;;25.10;93.70;;;;;;5077422;28;20335;-71
2021/10/10 00:32:49;;;;;;;;;;;25.00;94.10;;;;;;5077472;28;19908;-69
2021/10/10 00:35:17;;;;;;;;;;;24.80;94.70;;;;;;5075373;28;19908;-71
2021/10/10 00:37:45;;;;;;;;;;;24.40;96.80;;;;;;5076208;28;19977;-69
2021/10/10 00:40:12;;;;;;;;;;;23.70;97.70;;;;;;5106998;28;20279;-68
2021/10/10 00:42:38;;;;;;;;;;;23.20;98.00;;;;;;5074524;28;20347;-70
2021/10/10 00:45:05;;;;;;;;;;;22.90;98.40;;;;;;5074404;28;19936;-69
2021/10/10 00:47:32;;;;;;;;;;;22.70;98.90;;;;;;5073474;28;19924;-70
2021/10/10 00:49:59;;;;;;;;;;;22.30;99.90;;;;;;5073713;28;19916;-68
2021/10/10 00:52:26;;;;;;;;;;;21.60;99.90;;;;;;5072294;28;20298;-70
2021/10/10 00:54:54;;;;;;;;;;;21.50;99.90;;;;;;5073679;28;19962;-69
2021/10/10 00:57:24;;;;;;;;;;;21.50;99.90;;;;;;5074287;28;19962;-70
2021/10/10 00:59:53;;;;;;;;;;;21.50;99.90;;;;;;5105695;28;19920;-68
2021/10/10 01:02:20;;;;;;;;;;;21.40;99.90;;;;;;5073917;28;19916;-70
2021/10/10 01:04:50;;;;;;;;;;;21.30;99.90;;;;;;5073565;28;19978;-69
2021/10/10 01:07:18;;;;;;;;;;;21.10;99.90;;;;;;5073127;28;20284;-70
2021/10/10 01:09:45;;;;;;;;;;;21.10;99.90;;;;;;5073091;28;20421;-69
2021/10/10 01:12:12;;;;;;;;;;;21.20;99.90;;;;;;5073607;28;20252;-70
2021/10/10 01:14:38;;;;;;;;;;;21.10;99.90;;;;;;5074467;28;19920;-70
2021/10/10 01:17:05;;;;;;;;;;;21.20;99.90;;;;;;5075315;28;19955;-70
2021/10/10 01:19:33;;;;;;;;;;;21.40;99.90;;;;;;5074390;28;19918;-69
2021/10/10 01:22:02;;;;;;;;;;;21.50;99.90;;;;;;5075625;28;19913;-70
2021/10/10 01:24:28;;;;;;;;;;;21.60;99.90;;;;;;5074015;28;20291;-70
2021/10/10 01:26:56;;;;;;;;;;;21.60;99.90;;;;;;5074055;28;20046;-69
2021/10/10 01:29:23;;;;;;;;;;;21.60;99.90;;;;;;5073747;28;19919;-69
2021/10/10 01:31:49;;;;;;;;;;;21.50;99.90;;;;;;5073831;28;19915;-69
2021/10/10 01:34:16;;;;;;;;;;;21.50;99.90;;;;;;5074328;28;19912;-71
2021/10/10 01:36:43;;;;;;;;;;;21.60;99.90;;;;;;5073832;28;20363;-71
2021/10/10 01:39:12;;;;;;;;;;;21.70;99.90;;;;;;5072827;28;20278;-70
2021/10/10 01:41:39;;;;;;;;;;;21.60;99.90;;;;;;5073094;28;20007;-71
2021/10/10 01:44:11;;;;;;;;;;;21.70;99.90;;;;;;5073555;28;20359;-71
2021/10/10 01:46:38;;;;;;;;;;;21.60;99.90;;;;;;5074387;28;19920;-69
2021/10/10 01:49:05;;;;;;;;;;;21.80;99.90;;;;;;5072878;28;19954;-70
2021/10/10 01:51:31;;;;;;;;;;;21.80;99.90;;;;;;5072482;28;19909;-70
2021/10/10 01:53:59;;;;;;;;;;;21.80;99.90;;;;;;5072025;28;19909;-69
2021/10/10 01:56:25;;;;;;;;;;;21.70;99.90;;;;;;5072236;28;19969;-70
2021/10/10 01:58:52;;;;;;;;;;;21.70;99.90;;;;;;5072114;28;20341;-71
2021/10/10 02:01:19;;;;;;;;;;;21.90;99.90;;;;;;5072548;28;19919;-71
2021/10/10 02:03:45;;;;;;;;;;;22.20;99.90;;;;;;5072176;28;19909;-71
2021/10/10 02:06:12;;;;;;;;;;;22.30;99.90;;;;;;5072371;28;19908;-71
2021/10/10 02:08:39;;;;;;;;;;;22.20;99.90;;;;;;5071032;28;19993;-67
2021/10/10 02:11:05;;;;;;;;;;;22.20;99.90;;;;;;5071903;28;20323;-72
2021/10/10 02:13:32;;;;;;;;;;;22.20;99.90;;;;;;5072352;28;19908;-69
2021/10/10 02:15:59;;;;;;;;;;;22.10;99.90;;;;;;5072140;28;20002;-70
2021/10/10 02:18:25;;;;;;;;;;;22.10;99.90;;;;;;5074156;28;19909;-68
2021/10/10 02:20:52;;;;;;;;;;;22.10;99.90;;;;;;5076585;28;19958;-68
2021/10/10 02:23:19;;;;;;;;;;;22.00;99.90;;;;;;5076240;28;20380;-69
2021/10/10 02:25:45;;;;;;;;;;;22.00;99.90;;;;;;5075649;28;20278;-68
2021/10/10 02:28:12;;;;;;;;;;;22.20;99.90;;;;;;5076378;28;20386;-71
2021/10/10 02:30:38;;;;;;;;;;;22.20;99.90;;;;;;5076699;28;19995;-68
2021/10/10 02:33:05;;;;;;;;;;;22.20;99.90;;;;;;5076873;28;19916;-68
2021/10/10 02:35:32;;;;;;;;;;;22.00;99.90;;;;;;5076405;28;20461;-68
2021/10/10 02:37:58;;;;;;;;;;;21.80;99.90;;;;;;5077047;28;19909;-69
2021/10/10 02:40:25;;;;;;;;;;;21.80;99.90;;;;;;5076416;28;19915;-71
2021/10/10 02:42:55;;;;;;;;;;;21.80;99.90;;;;;;5076925;28;19934;-68
2021/10/10 02:45:21;;;;;;;;;;;21.70;99.90;;;;;;5076152;28;19913;-69
2021/10/10 02:47:48;;;;;;;;;;;21.40;99.90;;;;;;5075914;28;20323;-69
2021/10/10 02:50:15;;;;;;;;;;;21.30;99.90;;;;;;5076119;28;20359;-69
2021/10/10 02:52:41;;;;;;;;;;;21.10;99.90;;;;;;5075961;28;19954;-70
2021/10/10 02:55:08;;;;;;;;;;;20.80;99.90;;;;;;5075239;28;19915;-70
2021/10/10 02:57:35;;;;;;;;;;;20.60;99.90;;;;;;5075795;28;19919;-69
2021/10/10 03:00:03;;;;;;;;;;;20.40;99.90;;;;;;5076050;28;20004;-68
2021/10/10 03:02:30;;;;;;;;;;;20.30;99.90;;;;;;5077875;28;19930;-70
2021/10/10 03:04:56;;;;;;;;;;;20.20;99.90;;;;;;5074879;28;19912;-69
2021/10/10 03:07:23;;;;;;;;;;;20.20;99.90;;;;;;5076000;28;19917;-70
2021/10/10 03:09:50;;;;;;;;;;;20.20;99.90;;;;;;5074750;28;19962;-70
2021/10/10 03:12:17;;;;;;;;;;;20.40;99.90;;;;;;5108472;28;19916;-70
2021/10/10 03:14:43;;;;;;;;;;;20.40;99.90;;;;;;5075823;28;19908;-69
2021/10/10 03:17:10;;;;;;;;;;;20.40;99.90;;;;;;5075083;28;20272;-70
2021/10/10 03:19:37;;;;;;;;;;;20.40;99.90;;;;;;5075144;28;20001;-71
2021/10/10 03:22:03;;;;;;;;;;;20.40;99.90;;;;;;5074994;28;19909;-69
2021/10/10 03:24:30;;;;;;;;;;;20.60;99.90;;;;;;5074993;28;19927;-71
2021/10/10 03:26:57;;;;;;;;;;;20.80;99.90;;;;;;5075390;28;19928;-70
2021/10/10 03:29:24;;;;;;;;;;;21.00;99.90;;;;;;5074660;28;19909;-70
2021/10/10 03:31:51;;;;;;;;;;;21.00;99.90;;;;;;5074988;28;20317;-71
2021/10/10 03:34:19;;;;;;;;;;;20.70;99.90;;;;;;5075079;28;20278;-69
2021/10/10 03:36:45;;;;;;;;;;;20.40;99.90;;;;;;5075090;28;19908;-69
2021/10/10 03:39:12;;;;;;;;;;;19.90;99.90;;;;;;5075212;28;19908;-70
2021/10/10 03:41:38;;;;;;;;;;;19.70;99.90;;;;;;5074832;28;19916;-70
2021/10/10 03:44:05;;;;;;;;;;;19.50;99.90;;;;;;5074821;28;20010;-68
2021/10/10 03:46:32;;;;;;;;;;;19.30;99.90;;;;;;5074659;28;20351;-70
2021/10/10 03:49:01;;;;;;;;;;;19.30;99.90;;;;;;5074712;28;20351;-68
2021/10/10 03:51:28;;;;;;;;;;;19.10;99.90;;;;;;5074698;28;19992;-68
2021/10/10 03:56:24;;;;;;;;;;;18.50;99.90;;;;;;5075035;28;20282;-68
2021/10/10 03:58:51;;;;;;;;;;;18.30;99.90;;;;;;5074113;28;20397;-68
2021/10/10 04:01:18;;;;;;;;;;;18.20;99.90;;;;;;5074768;28;19916;-69
2021/10/10 04:03:44;;;;;;;;;;;18.00;99.90;;;;;;5074342;28;19916;-70
2021/10/10 04:06:11;;;;;;;;;;;17.70;99.90;;;;;;5074872;28;19908;-69
2021/10/10 04:08:43;;;;;;;;;;;17.50;99.90;;;;;;5074760;28;20013;-70
2021/10/10 04:11:11;;;;;;;;;;;17.20;99.90;;;;;;5074711;28;19915;-68
2021/10/10 04:13:38;;;;;;;;;;;17.10;99.90;;;;;;5074497;28;19909;-70
2021/10/10 04:16:05;;;;;;;;;;;17.00;99.90;;;;;;5074773;28;19915;-70
2021/10/10 04:18:33;;;;;;;;;;;17.00;99.90;;;;;;5074558;28;19969;-71
2021/10/10 04:21:00;;;;;;;;;;;17.00;99.90;;;;;;5074505;28;19909;-69
2021/10/10 04:23:26;;;;;;;;;;;16.90;99.90;;;;;;5074584;28;20006;-69
2021/10/10 04:25:53;;;;;;;;;;;16.80;99.90;;;;;;5074217;28;19940;-70
2021/10/10 04:28:20;;;;;;;;;;;16.80;99.90;;;;;;5073206;28;20292;-72
2021/10/10 04:30:48;;;;;;;;;;;16.80;99.90;;;;;;5074807;28;19917;-72
2021/10/10 04:33:14;;;;;;;;;;;16.90;99.90;;;;;;5078170;28;19915;-73
2021/10/10 04:35:44;;;;;;;;;;;16.90;99.90;;;;;;5081293;28;19909;-72
2021/10/10 04:38:11;;;;;;;;;;;16.90;99.90;;;;;;5075236;28;19912;-69
2021/10/10 04:40:38;;;;;;;;;;;16.70;99.90;;;;;;5106472;28;19948;-70
2021/10/10 04:43:09;;;;;;;;;;;16.60;99.90;;;;;;5074518;28;19909;-72
2021/10/10 04:45:36;;;;;;;;;;;16.50;99.90;;;;;;5074659;28;19931;-72
2021/10/10 04:48:03;;;;;;;;;;;16.70;99.90;;;;;;5075014;28;19916;-72
2021/10/10 04:50:29;;;;;;;;;;;16.70;99.90;;;;;;5074705;28;19915;-72
2021/10/10 04:52:56;;;;;;;;;;;16.60;99.90;;;;;;5072883;28;19992;-72
2021/10/10 04:55:22;;;;;;;;;;;16.70;99.90;;;;;;5074592;28;19913;-72
2021/10/10 04:57:49;;;;;;;;;;;16.80;99.90;;;;;;5074166;28;20362;-72
2021/10/10 05:00:16;;;;;;;;;;;16.70;99.90;;;;;;5074435;28;19916;-71
2021/10/10 05:02:42;;;;;;;;;;;16.80;99.90;;;;;;5074220;28;20317;-72
2021/10/10 05:05:09;;;;;;;;;;;16.90;99.90;;;;;;5074354;28;19909;-73
2021/10/10 05:07:36;;;;;;;;;;;16.80;99.90;;;;;;5074376;28;19916;-72
2021/10/10 05:10:03;;;;;;;;;;;16.90;99.90;;;;;;5074085;28;19908;-72
2021/10/10 05:12:30;;;;;;;;;;;16.70;99.90;;;;;;5074433;28;19913;-72
2021/10/10 05:14:56;;;;;;;;;;;16.70;99.90;;;;;;5073808;28;19912;-71
2021/10/10 05:17:23;;;;;;;;;;;16.80;99.90;;;;;;5073404;28;19912;-72
2021/10/10 05:19:50;;;;;;;;;;;16.80;99.90;;;;;;5072873;28;20271;-70
2021/10/10 05:22:19;;;;;;;;;;;16.80;99.90;;;;;;5072930;28;19978;-72
2021/10/10 05:24:45;;;;;;;;;;;16.80;99.90;;;;;;5073093;28;19978;-69
2021/10/10 05:27:12;;;;;;;;;;;16.90;99.90;;;;;;5072844;28;19923;-70
2021/10/10 05:29:42;;;;;;;;;;;16.90;99.90;;;;;;5072562;28;20281;-71
2021/10/10 05:32:09;;;;;;;;;;;17.00;99.90;;;;;;5072429;28;19908;-70
2021/10/10 05:34:36;;;;;;;;;;;17.00;99.90;;;;;;5073007;28;20317;-72
2021/10/10 05:37:02;;;;;;;;;;;16.90;99.90;;;;;;5073259;28;20309;-70
2021/10/10 05:39:29;;;;;;;;;;;16.90;99.90;;;;;;5072856;28;19908;-70
2021/10/10 05:41:55;;;;;;;;;;;17.00;99.90;;;;;;5072880;28;20007;-71
2021/10/10 05:44:22;;;;;;;;;;;16.90;99.90;;;;;;5073139;28;19952;-70
2021/10/10 05:46:49;;;;;;;;;;;16.90;99.90;;;;;;5072740;28;19917;-70
2021/10/10 05:49:15;;;;;;;;;;;16.90;99.90;;;;;;5073220;28;19915;-71
2021/10/10 05:51:46;;;;;;;;;;;16.80;99.90;;;;;;5072777;28;19916;-69
2021/10/10 05:54:15;;;;;;;;;;;16.70;99.90;;;;;;5073639;28;19938;-70
2021/10/10 05:56:41;;;;;;;;;;;16.70;99.90;;;;;;5073250;28;19908;-70
2021/10/10 05:59:10;;;;;;;;;;;16.70;99.90;;;;;;5073021;28;19908;-69
2021/10/10 06:01:36;;;;;;;;;;;16.70;99.90;;;;;;5073037;28;19912;-70
2021/10/10 06:04:04;;;;;;;;;;;16.70;99.90;;;;;;5074055;28;19916;-70
2021/10/10 06:06:30;;;;;;;;;;;16.70;99.90;;;;;;5078994;28;19952;-71
2021/10/10 06:09:00;;;;;;;;;;;16.60;99.90;;;;;;5080615;28;19923;-70
2021/10/10 06:11:28;;;;;;;;;;;16.60;99.90;;;;;;5074089;28;20011;-70
2021/10/10 06:13:54;;;;;;;;;;;16.60;99.90;;;;;;5073370;28;19909;-70
2021/10/10 06:16:24;;;;;;;;;;;16.50;99.90;;;;;;5073332;28;19908;-70
2021/10/10 06:18:52;;;;;;;;;;;16.50;99.90;;;;;;5072620;28;19954;-70
2021/10/10 06:21:19;;;;;;;;;;;16.40;99.90;;;;;;5073561;28;20278;-70
2021/10/10 06:23:46;;;;;;;;;;;16.40;99.90;;;;;;5072988;28;20283;-70
2021/10/10 06:26:13;;;;;;;;;;;16.40;99.90;;;;;;5105389;28;19960;-72
2021/10/10 06:28:40;;;;;;;;;;;16.40;99.90;;;;;;5072891;28;19935;-71
2021/10/10 06:31:07;;;;;;;;;;;16.40;99.90;;;;;;5071576;28;19963;-70
2021/10/10 06:33:34;;;;;;;;;;;16.40;99.90;;;;;;5072518;28;20004;-69
2021/10/10 06:36:04;;;;;;;;;;;16.40;99.90;;;;;;5072930;28;19908;-70
2021/10/10 06:38:31;;;;;;;;;;;16.40;99.90;;;;;;5073122;28;19962;-69
2021/10/10 06:40:57;;;;;;;;;;;16.30;99.90;;;;;;5072965;28;19912;-70
2021/10/10 06:43:24;;;;;;;;;;;16.30;99.90;;;;;;5072710;28;20275;-69
2021/10/10 06:45:51;;;;;;;;;;;16.30;99.90;;;;;;5072900;28;20005;-71
2021/10/10 06:48:21;;;;;;;;;;;16.30;99.90;;;;;;5072722;28;19917;-70
2021/10/10 06:50:48;;;;;;;;;;;16.30;99.90;;;;;;5072888;28;19913;-70
2021/10/10 06:53:18;;;;;;;;;;;16.30;99.90;;;;;;5072731;28;19958;-70
2021/10/10 06:55:45;;;;;;;;;;;16.20;99.90;;;;;;5072473;28;19912;-72
2021/10/10 06:58:12;;;;;;;;;;;16.30;99.90;;;;;;5104443;28;19915;-69
2021/10/10 07:00:39;;;;;;;;;;;16.20;99.90;;;;;;5072053;28;19916;-70
2021/10/10 07:03:05;;;;;;;;;;;16.20;99.90;;;;;;5072411;28;19934;-70
2021/10/10 07:05:32;;;;;;;;;;;16.20;99.90;;;;;;5075851;28;19909;-69
2021/10/10 07:07:59;;;;;;;;;;;16.20;99.90;;;;;;5076517;28;19916;-69
2021/10/10 07:10:26;;;;;;;;;;;16.20;99.90;;;;;;5076489;28;20367;-69
2021/10/10 07:12:53;;;;;;;;;;;16.20;99.90;;;;;;5077285;28;19908;-69
2021/10/10 07:15:24;;;;;;;;;;;16.10;99.90;;;;;;5077404;28;19915;-72
2021/10/10 07:17:58;;;;;;;;;;;16.20;99.90;;;;;;5110153;28;19912;-71
2021/10/10 07:20:48;;;;;;;;;;;16.20;99.90;;;;;;5075841;28;20352;-70
2021/10/10 07:23:14;;;;;;;;;;;16.20;99.90;;;;;;5076692;28;19976;-70
2021/10/10 07:25:41;;;;;;;;;;;16.10;99.90;;;;;;5077597;28;19913;-68
2021/10/10 07:28:08;;;;;;;;;;;16.20;99.90;;;;;;5079692;28;19935;-71
2021/10/10 07:30:34;;;;;;;;;;;16.20;99.90;;;;;;5081458;28;19908;-69
2021/10/10 07:33:01;;;;;;;;;;;16.20;99.90;;;;;;5080992;28;19909;-71
2021/10/10 07:35:28;;;;;;;;;;;16.20;99.90;;;;;;5085213;28;20406;-71
2021/10/10 07:37:54;;;;;;;;;;;16.10;99.90;;;;;;5084234;28;19908;-71
2021/10/10 07:40:24;;;;;;;;;;;16.10;99.90;;;;;;5086854;28;19932;-71
2021/10/10 07:42:50;;;;;;;;;;;16.10;99.90;;;;;;5081303;28;20385;-69
2021/10/10 07:45:23;;;;;;;;;;;16.10;99.90;;;;;;5075328;28;19958;-69
2021/10/10 07:47:50;;;;;;;;;;;16.10;99.90;;;;;;5075132;28;19917;-70
2021/10/10 07:50:18;;;;;;;;;;;16.10;99.90;;;;;;5075392;28;19920;-71
2021/10/10 07:52:45;;;;;;;;;;;16.10;99.90;;;;;;5075196;28;19916;-71
2021/10/10 07:55:11;;;;;;;;;;;16.10;99.90;;;;;;5075179;28;19909;-70
2021/10/10 07:57:38;;;;;;;;;;;16.10;99.90;;;;;;5075470;28;20001;-70
2021/10/10 08:00:06;;;;;;;;;;;16.10;99.90;;;;;;5075935;28;19914;-73
2021/10/10 08:02:33;;;;;;;;;;;16.00;99.90;;;;;;5075848;28;19908;-70
2021/10/10 08:04:59;;;;;;;;;;;16.00;99.90;;;;;;5075813;28;19934;-71
2021/10/10 08:07:33;;;;;;;;;;;16.10;99.90;;;;;;5076412;28;19917;-70
2021/10/10 08:10:00;;;;;;;;;;;16.00;99.90;;;;;;5075178;28;19909;-71
2021/10/10 08:12:26;;;;;;;;;;;16.00;99.90;;;;;;5075321;28;19919;-70
2021/10/10 08:14:53;;;;;;;;;;;16.00;99.90;;;;;;5107337;28;19958;-72
2021/10/10 08:17:20;;;;;;;;;;;16.00;99.90;;;;;;5074348;28;20382;-71
2021/10/10 08:19:46;;;;;;;;;;;16.00;99.90;;;;;;5074997;28;19913;-72
2021/10/10 08:22:14;;;;;;;;;;;16.00;99.90;;;;;;5074689;28;19995;-71
2021/10/10 08:24:43;;;;;;;;;;;16.00;99.90;;;;;;5074561;28;19916;-73
2021/10/10 08:27:10;;;;;;;;;;;16.00;99.90;;;;;;5073017;28;20436;-72
2021/10/10 08:29:37;;;;;;;;;;;16.00;99.90;;;;;;5073436;28;19939;-71
2021/10/10 08:32:03;;;;;;;;;;;16.00;99.90;;;;;;5074077;28;20097;-71
2021/10/10 08:34:30;;;;;;;;;;;16.00;99.90;;;;;;5074125;28;20343;-70
2021/10/10 08:36:57;;;;;;;;;;;16.00;99.90;;;;;;5074251;28;19997;-71
2021/10/10 08:39:24;;;;;;;;;;;16.00;99.90;;;;;;5073892;28;19912;-69
2021/10/10 08:41:57;;;;;;;;;;;15.90;99.90;;;;;;5073626;28;19908;-71
2021/10/10 08:44:36;;;;;;;;;;;15.90;99.90;;;;;;5073229;28;19910;-70
2021/10/10 08:47:06;;;;;;;;;;;15.90;99.90;;;;;;5073641;28;19935;-70
2021/10/10 08:49:33;;;;;;;;;;;15.90;99.90;;;;;;5073508;28;19916;-71
2021/10/10 08:52:07;;;;;;;;;;;15.90;99.90;;;;;;5073759;28;19931;-70
2021/10/10 08:54:34;;;;;;;;;;;15.90;99.90;;;;;;5106380;28;20050;-70
2021/10/10 08:57:02;;;;;;;;;;;15.90;99.90;;;;;;5073745;28;19916;-71
2021/10/10 08:59:30;;;;;;;;;;;15.90;99.90;;;;;;5072815;28;19961;-71
2021/10/10 09:01:58;;;;;;;;;;;15.90;99.90;;;;;;5073656;28;19987;-71
2021/10/10 09:04:24;;;;;;;;;;;15.90;99.90;;;;;;5073665;28;20291;-70
2021/10/10 09:06:52;;;;;;;;;;;15.90;99.90;;;;;;5073483;28;19923;-72
2021/10/10 09:09:29;;;;;;;;;;;15.90;99.90;;;;;;5073796;28;19915;-69
2021/10/10 09:12:02;;;;;;;;;;;15.80;99.90;;;;;;5073532;28;19915;-73
2021/10/10 09:14:28;;;;;;;;;;;15.90;99.90;;;;;;5075144;28;20274;-70
2021/10/10 09:17:15;;;;;;;;;;;15.80;99.90;;;;;;5073394;28;20355;-69
2021/10/10 09:19:58;;;;;;;;;;;15.80;99.90;;;;;;5072933;28;20351;-71
2021/10/10 09:22:25;;;;;;;;;;;15.80;99.90;;;;;;5104987;28;19939;-69
2021/10/10 09:24:53;;;;;;;;;;;15.80;99.90;;;;;;5073279;28;19916;-69
2021/10/10 09:27:22;;;;;;;;;;;15.70;99.90;;;;;;5072972;28;19923;-70
2021/10/10 09:29:51;;;;;;;;;;;15.70;99.90;;;;;;5072218;28;19908;-69
2021/10/10 09:32:19;;;;;;;;;;;15.70;99.90;;;;;;5073118;28;19919;-71
2021/10/10 09:34:46;;;;;;;;;;;15.70;99.90;;;;;;5072926;28;20079;-72
2021/10/10 09:37:21;;;;;;;;;;;15.70;99.90;;;;;;5073049;28;19909;-72
2021/10/10 09:40:40;;;;;;;;;;;15.60;99.90;;;;;;5072626;28;20264;-73
2021/10/10 09:42:42;;;;;;;;;;;15.60;99.90;;;;;;5061959;28;19983;-73
2021/10/10 09:45:13;;;;;;;;;;;15.60;99.90;;;;;;5072553;28;19948;-70
2021/10/10 09:47:50;;;;;;;;;;;15.60;99.90;;;;;;5072589;28;19917;-70
2021/10/10 09:50:17;;;;;;;;;;;15.60;99.90;;;;;;5072752;28;19920;-71
2021/10/10 09:52:44;;;;;;;;;;;15.70;99.90;;;;;;5073071;28;19932;-71
2021/10/10 09:55:11;;;;;;;;;;;15.70;99.90;;;;;;5072800;28;19951;-69
2021/10/10 09:57:47;;;;;;;;;;;15.60;99.90;;;;;;5070724;28;20363;-71
2021/10/10 10:00:20;;;;;;;;;;;15.70;99.90;;;;;;5072599;28;20309;-71
2021/10/10 10:02:48;;;;;;;;;;;15.70;99.90;;;;;;5072772;28;19928;-70
2021/10/10 10:05:24;;;;;;;;;;;15.60;99.90;;;;;;5072589;28;19938;-71
2021/10/10 10:07:52;;;;;;;;;;;15.70;99.90;;;;;;5072308;28;19927;-69
2021/10/10 10:10:19;;;;;;;;;;;15.60;99.90;;;;;;5072795;28;20338;-70
2021/10/10 10:12:47;;;;;;;;;;;15.60;99.90;;;;;;5072093;28;20007;-70
2021/10/10 10:15:14;;;;;;;;;;;15.60;99.90;;;;;;5072707;28;19908;-70
2021/10/10 10:17:40;;;;;;;;;;;15.60;99.90;;;;;;5072227;28;19995;-72
2021/10/10 10:20:07;;;;;;;;;;;15.70;99.90;;;;;;5072295;28;19912;-69
2021/10/10 10:22:35;;;;;;;;;;;15.70;99.90;;;;;;5072031;28;20291;-72
2021/10/10 10:25:03;;;;;;;;;;;15.80;99.90;;;;;;5072498;28;19912;-70
2021/10/10 10:27:30;;;;;;;;;;;15.80;99.90;;;;;;5071712;28;19974;-71
2021/10/10 10:29:57;;;;;;;;;;;15.80;99.90;;;;;;5072199;28;19913;-70
2021/10/10 10:32:25;;;;;;;;;;;15.80;99.90;;;;;;5071915;28;19908;-69
2021/10/10 10:35:00;;;;;;;;;;;15.80;99.90;;;;;;5072389;28;19959;-70
2021/10/10 10:37:44;;;;;;;;;;;15.80;99.90;;;;;;5072285;28;20605;-71
2021/10/10 10:40:17;;;;;;;;;;;15.80;99.90;;;;;;5108639;28;19909;-69
2021/10/10 10:42:45;;;;;;;;;;;15.80;99.90;;;;;;5079707;28;20639;-69
2021/10/10 10:45:20;;;;;;;;;;;15.80;99.90;;;;;;5097659;28;19998;-70
2021/10/10 10:47:49;;;;;;;;;;;15.80;99.90;;;;;;5105522;28;19924;-70
2021/10/10 10:50:25;;;;;;;;;;;15.80;99.90;;;;;;5098635;28;19930;-69
2021/10/10 10:53:02;;;;;;;;;;;15.70;99.90;;;;;;5097551;28;19908;-69
2021/10/10 10:55:30;;;;;;;;;;;15.70;99.90;;;;;;5097755;28;19922;-68
2021/10/10 10:57:57;;;;;;;;;;;15.80;99.90;;;;;;5096896;28;19999;-71
2021/10/10 11:00:34;;;;;;;;;;;15.70;99.90;;;;;;5097086;28;19909;-68
2021/10/10 11:03:01;;;;;;;;;;;15.80;99.90;;;;;;5096275;28;19919;-71
2021/10/10 11:05:33;;;;;;;;;;;15.80;99.90;;;;;;5091844;28;19912;-71
2021/10/10 11:08:06;;;;;;;;;;;15.70;99.90;;;;;;5076542;28;19971;-70
2021/10/10 11:10:33;;;;;;;;;;;15.70;99.90;;;;;;5075422;28;19944;-71
2021/10/10 11:13:06;;;;;;;;;;;15.70;99.90;;;;;;5075776;28;19913;-71
2021/10/10 11:15:55;;;;;;;;;;;15.70;99.90;;;;;;5075326;28;19908;-70
2021/10/10 11:18:24;;;;;;;;;;;15.70;99.90;;;;;;5072609;28;19995;-69
2021/10/10 11:20:57;;;;;;;;;;;15.60;99.90;;;;;;5075311;28;19954;-74
2021/10/10 11:23:24;;;;;;;;;;;15.60;99.90;;;;;;5075045;28;19924;-70
2021/10/10 11:25:52;;;;;;;;;;;15.60;99.90;;;;;;5075462;28;19912;-69
2021/10/10 11:28:19;;;;;;;;;;;15.50;99.90;;;;;;5075125;28;19916;-74
2021/10/10 11:30:46;;;;;;;;;;;15.50;99.90;;;;;;5072978;28;19915;-73
2021/10/10 11:33:13;;;;;;;;;;;15.50;99.90;;;;;;5075540;28;20011;-73
2021/10/10 11:35:44;;;;;;;;;;;15.50;99.90;;;;;;5075466;28;19909;-70
2021/10/10 11:38:12;;;;;;;;;;;15.50;99.90;;;;;;5074917;28;20077;-71
2021/10/10 11:40:57;;;;;;;;;;;15.50;99.90;;;;;;5074997;28;19908;-74
2021/10/10 11:43:24;;;;;;;;;;;15.40;99.90;;;;;;5075340;28;19908;-75
2021/10/10 11:45:57;;;;;;;;;;;15.40;99.90;;;;;;5106700;28;20314;-75
2021/10/10 11:48:34;;;;;;;;;;;15.40;99.90;;;;;;5075089;28;19924;-71
2021/10/10 11:51:01;;;;;;;;;;;15.40;99.90;;;;;;5074668;28;19915;-72
2021/10/10 11:53:41;;;;;;;;;;;15.40;99.90;;;;;;5075192;28;19913;-73
2021/10/10 11:56:08;;;;;;;;;;;15.40;99.90;;;;;;5074935;28;19912;-73
2021/10/10 11:58:35;;;;;;;;;;;15.40;99.90;;;;;;5074630;28;19909;-74
2021/10/10 12:01:11;;;;;;;;;;;15.40;99.90;;;;;;5074313;28;19915;-76
2021/10/10 12:03:45;;;;;;;;;;;15.40;99.90;;;;;;5074124;28;19913;-75
2021/10/10 12:06:16;;;;;;;;;;;15.40;99.90;;;;;;5074938;28;19915;-73
2021/10/10 12:08:43;;;;;;;;;;;15.40;99.90;;;;;;5074789;28;20244;-72
2021/10/10 12:11:09;;;;;;;;;;;15.40;99.90;;;;;;5074527;28;19939;-71
2021/10/10 12:13:36;;;;;;;;;;;15.30;99.90;;;;;;5072646;28;19912;-69
2021/10/10 12:16:04;;;;;;;;;;;15.40;99.90;;;;;;5115078;28;20358;-70
2021/10/10 12:18:32;;;;;;;;;;;15.40;99.90;;;;;;5115080;28;19908;-70
2021/10/10 12:21:16;;;;;;;;;;;15.50;99.90;;;;;;5117142;28;20002;-69
2021/10/10 12:23:43;;;;;;;;;;;15.40;99.90;;;;;;5116205;28;20279;-71
2021/10/10 12:26:10;;;;;;;;;;;15.40;99.90;;;;;;5114966;28;19998;-69
2021/10/10 12:28:38;;;;;;;;;;;15.30;99.90;;;;;;5115004;28;20014;-69
2021/10/10 12:31:07;;;;;;;;;;;15.20;99.90;;;;;;5115328;28;19908;-69
2021/10/10 12:33:43;;;;;;;;;;;15.20;99.90;;;;;;5114683;28;19968;-73
2021/10/10 12:36:13;;;;;;;;;;;15.20;99.90;;;;;;5114726;28;19907;-73
2021/10/10 12:38:44;;;;;;;;;;;15.20;99.90;;;;;;5114586;28;19998;-72
2021/10/10 12:41:20;;;;;;;;;;;15.20;99.90;;;;;;5114662;28;19946;-74
2021/10/10 12:43:52;;;;;;;;;;;15.10;99.90;;;;;;5114275;28;19996;-72
2021/10/10 12:46:20;;;;;;;;;;;15.20;99.90;;;;;;5112841;28;19930;-72
2021/10/10 12:49:06;;;;;;;;;;;15.20;99.90;;;;;;5113719;28;19919;-74
2021/10/10 12:51:35;;;;;;;;;;;15.20;99.90;;;;;;5108696;28;19947;-70
2021/10/10 12:54:13;;;;;;;;;;;15.10;99.90;;;;;;5073640;28;20271;-71
2021/10/10 12:56:40;;;;;;;;;;;15.20;99.90;;;;;;5073619;28;20000;-73
2021/10/10 12:59:07;;;;;;;;;;;15.10;99.90;;;;;;5073278;28;19909;-72
2021/10/10 13:01:34;;;;;;;;;;;15.10;99.90;;;;;;5072557;28;19948;-71
2021/10/10 13:04:03;;;;;;;;;;;15.00;99.90;;;;;;5073615;28;19909;-69
2021/10/10 13:06:30;;;;;;;;;;;15.00;99.90;;;;;;5073456;28;19950;-69
2021/10/10 13:08:57;;;;;;;;;;;15.00;99.90;;;;;;5073389;28;19920;-71
2021/10/10 13:11:25;;;;;;;;;;;15.00;99.90;;;;;;5073063;28;20376;-69
2021/10/10 13:13:52;;;;;;;;;;;15.00;99.90;;;;;;5072898;28;19920;-69
2021/10/10 13:16:19;;;;;;;;;;;15.00;99.90;;;;;;5073445;28;19913;-69
2021/10/10 13:18:46;;;;;;;;;;;14.90;99.90;;;;;;5073305;28;20279;-70
2021/10/10 13:21:13;;;;;;;;;;;15.00;99.90;;;;;;5073598;28;20380;-69
2021/10/10 13:23:40;;;;;;;;;;;15.00;99.90;;;;;;5072751;28;20391;-70
2021/10/10 13:26:07;;;;;;;;;;;15.00;99.90;;;;;;5073067;28;19912;-72
2021/10/10 13:28:34;;;;;;;;;;;15.00;99.90;;;;;;5071663;28;19924;-73
2021/10/10 13:31:02;;;;;;;;;;;15.00;99.90;;;;;;5073211;28;19909;-73
2021/10/10 13:33:35;;;;;;;;;;;15.00;99.90;;;;;;5072839;28;19908;-71
2021/10/10 13:36:04;;;;;;;;;;;15.00;99.90;;;;;;5073212;28;19954;-70
2021/10/10 13:38:31;;;;;;;;;;;15.00;99.90;;;;;;5073164;28;19908;-69
2021/10/10 13:40:58;;;;;;;;;;;15.00;99.90;;;;;;5072769;28;19908;-70
2021/10/10 13:43:25;;;;;;;;;;;15.10;99.90;;;;;;5072673;28;19908;-70
2021/10/10 13:45:57;;;;;;;;;;;15.00;99.90;;;;;;5072671;28;19915;-69
2021/10/10 13:48:31;;;;;;;;;;;15.00;99.90;;;;;;5072690;28;20023;-70
2021/10/10 13:50:58;;;;;;;;;;;15.00;99.90;;;;;;5072661;28;19959;-69
2021/10/10 13:53:26;;;;;;;;;;;15.00;99.90;;;;;;5072726;28;20008;-69
2021/10/10 13:55:54;;;;;;;;;;;15.00;99.90;;;;;;5074853;28;19962;-69
2021/10/10 13:58:21;;;;;;;;;;;15.00;99.90;;;;;;5073540;28;19940;-69
2021/10/10 14:00:49;;;;;;;;;;;15.00;99.90;;;;;;5072691;28;20362;-70
2021/10/10 14:03:16;;;;;;;;;;;15.10;99.90;;;;;;5072692;28;19931;-69
2021/10/10 14:05:44;;;;;;;;;;;15.00;99.90;;;;;;5072374;28;19915;-70
2021/10/10 14:08:11;;;;;;;;;;;15.00;99.90;;;;;;5072358;28;19939;-72
2021/10/10 14:10:38;;;;;;;;;;;15.00;99.90;;;;;;5087577;28;19918;-74
2021/10/10 14:13:05;;;;;;;;;;;15.00;99.90;;;;;;5112890;28;19933;-75
2021/10/10 14:15:32;;;;;;;;;;;15.00;99.90;;;;;;5112682;28;20374;-71
2021/10/10 14:18:00;;;;;;;;;;;14.90;99.90;;;;;;5112795;28;20351;-71
2021/10/10 14:20:27;;;;;;;;;;;14.90;99.90;;;;;;5112908;28;20282;-70
2021/10/10 14:22:54;;;;;;;;;;;14.90;99.90;;;;;;5112805;28;20386;-71
2021/10/10 14:25:20;;;;;;;;;;;14.90;99.90;;;;;;5112655;28;19908;-72